sensor_id;sensor_type;location;lat;lon;timestamp;P1;durP1;ratioP1;P2;durP2;ratioP2
42802;SDS011;28447;48.682;9.022;2023-06-10T04:00:22;18.00;;;13.03;;
42802;SDS011;28447;48.682;9.022;2023-06-10T04:02:47;15.93;;;12.83;;
42802;SDS011;28447;48.682;9.022;2023-06-10T04:05:17;14.40;;;12.60;;
42802;SDS011;28447;48.682;9.022;2023-06-10T04:07:46;13.30;;;11.90;;
42802;SDS011;28447;48.682;9.022;2023-06-10T04:10:13;13.97;;;12.47;;
42802;SDS011;28447;48.682;9.022;2023-06-10T04:12:39;13.60;;;12.17;;
42802;SDS011;28447;48.682;9.022;2023-06-10T04:15:05;15.77;;;13.53;;
42802;SDS011;28447;48.682;9.022;2023-06-10T04:17:32;14.27;;;12.20;;
42802;SDS011;28447;48.682;9.022;2023-06-10T04:19:57;14.27;;;12.77;;
42802;SDS011;28447;48.682;9.022;2023-06-10T04:22:23;16.50;;;12.93;;
42802;SDS011;28447;48.682;9.022;2023-06-10T04:24:49;15.03;;;12.97;;
42802;SDS011;28447;48.682;9.022;2023-06-10T04:27:15;14.47;;;12.97;;
42802;SDS011;28447;48.682;9.022;2023-06-10T04:29:40;16.57;;;12.97;;
42802;SDS011;28447;48.682;9.022;2023-06-10T04:32:06;14.37;;;12.87;;
42802;SDS011;28447;48.682;9.022;2023-06-10T04:34:36;14.20;;;12.57;;
42802;SDS011;28447;48.682;9.022;2023-06-10T04:37:04;17.27;;;12.80;;
42802;SDS011;28447;48.682;9.022;2023-06-10T04:39:30;14.20;;;12.43;;
42802;SDS011;28447;48.682;9.022;2023-06-10T04:41:55;18.20;;;13.13;;
42802;SDS011;28447;48.682;9.022;2023-06-10T04:44:21;15.63;;;13.30;;
42802;SDS011;28447;48.682;9.022;2023-06-10T04:46:46;16.70;;;13.23;;
42802;SDS011;28447;48.682;9.022;2023-06-10T04:49:13;13.63;;;12.30;;
42802;SDS011;28447;48.682;9.022;2023-06-10T04:51:41;15.37;;;13.77;;
42802;SDS011;28447;48.682;9.022;2023-06-10T04:54:07;13.13;;;11.83;;
42802;SDS011;28447;48.682;9.022;2023-06-10T04:56:33;14.70;;;11.23;;
42802;SDS011;28447;48.682;9.022;2023-06-10T04:58:59;15.90;;;13.30;;
42802;SDS011;28447;48.682;9.022;2023-06-10T05:01:25;15.00;;;13.27;;
42802;SDS011;28447;48.682;9.022;2023-06-10T05:03:51;18.70;;;13.23;;
42802;SDS011;28447;48.682;9.022;2023-06-10T05:06:17;13.93;;;11.83;;
42802;SDS011;28447;48.682;9.022;2023-06-10T05:08:42;16.60;;;13.20;;
42802;SDS011;28447;48.682;9.022;2023-06-10T05:11:08;15.43;;;12.33;;
42802;SDS011;28447;48.682;9.022;2023-06-10T05:13:34;15.47;;;13.30;;
42802;SDS011;28447;48.682;9.022;2023-06-10T05:15:59;14.27;;;12.30;;
42802;SDS011;28447;48.682;9.022;2023-06-10T05:18:25;13.67;;;12.27;;
42802;SDS011;28447;48.682;9.022;2023-06-10T05:20:51;13.33;;;11.70;;
42802;SDS011;28447;48.682;9.022;2023-06-10T05:23:18;12.30;;;11.00;;
42802;SDS011;28447;48.682;9.022;2023-06-10T05:25:44;11.70;;;10.57;;
42802;SDS011;28447;48.682;9.022;2023-06-10T05:28:10;11.67;;;10.47;;
42802;SDS011;28447;48.682;9.022;2023-06-10T05:30:36;12.63;;;10.40;;
42802;SDS011;28447;48.682;9.022;2023-06-10T05:33:02;12.60;;;9.73;;
42802;SDS011;28447;48.682;9.022;2023-06-10T05:35:28;8.87;;;7.97;;
42802;SDS011;28447;48.682;9.022;2023-06-10T05:37:54;10.83;;;7.90;;
42802;SDS011;28447;48.682;9.022;2023-06-10T05:40:20;9.13;;;8.23;;
42802;SDS011;28447;48.682;9.022;2023-06-10T05:42:45;8.90;;;7.87;;
42802;SDS011;28447;48.682;9.022;2023-06-10T05:45:11;8.70;;;7.80;;
42802;SDS011;28447;48.682;9.022;2023-06-10T05:47:37;8.47;;;7.57;;
42802;SDS011;28447;48.682;9.022;2023-06-10T05:50:02;9.63;;;7.30;;
42802;SDS011;28447;48.682;9.022;2023-06-10T05:52:32;9.20;;;7.73;;
42802;SDS011;28447;48.682;9.022;2023-06-10T05:54:58;7.97;;;7.17;;
42802;SDS011;28447;48.682;9.022;2023-06-10T05:57:24;10.23;;;7.87;;
42802;SDS011;28447;48.682;9.022;2023-06-10T05:59:51;8.53;;;7.60;;
42802;SDS011;28447;48.682;9.022;2023-06-10T06:02:17;8.47;;;7.47;;
42802;SDS011;28447;48.682;9.022;2023-06-10T06:04:42;8.93;;;8.03;;
42802;SDS011;28447;48.682;9.022;2023-06-10T06:07:08;9.60;;;8.20;;
42802;SDS011;28447;48.682;9.022;2023-06-10T06:09:34;8.90;;;7.63;;
42802;SDS011;28447;48.682;9.022;2023-06-10T06:12:00;9.57;;;7.90;;
42802;SDS011;28447;48.682;9.022;2023-06-10T06:14:25;9.57;;;7.80;;
42802;SDS011;28447;48.682;9.022;2023-06-10T06:16:51;10.30;;;7.87;;
42802;SDS011;28447;48.682;9.022;2023-06-10T06:19:16;8.20;;;7.40;;
42802;SDS011;28447;48.682;9.022;2023-06-10T06:21:42;8.93;;;8.00;;
42802;SDS011;28447;48.682;9.022;2023-06-10T06:24:08;7.97;;;7.17;;
42802;SDS011;28447;48.682;9.022;2023-06-10T06:26:33;11.47;;;7.93;;
42802;SDS011;28447;48.682;9.022;2023-06-10T06:28:59;8.17;;;7.37;;
42802;SDS011;28447;48.682;9.022;2023-06-10T06:31:25;9.60;;;7.17;;
42802;SDS011;28447;48.682;9.022;2023-06-10T06:33:50;9.37;;;7.93;;
42802;SDS011;28447;48.682;9.022;2023-06-10T06:36:16;12.20;;;8.27;;
42802;SDS011;28447;48.682;9.022;2023-06-10T06:38:41;7.73;;;6.93;;
42802;SDS011;28447;48.682;9.022;2023-06-10T06:41:07;9.93;;;8.90;;
42802;SDS011;28447;48.682;9.022;2023-06-10T06:43:33;9.70;;;8.70;;
42802;SDS011;28447;48.682;9.022;2023-06-10T06:45:59;8.77;;;7.87;;
42802;SDS011;28447;48.682;9.022;2023-06-10T06:48:24;9.77;;;8.87;;
42802;SDS011;28447;48.682;9.022;2023-06-10T06:50:50;9.40;;;7.57;;
42802;SDS011;28447;48.682;9.022;2023-06-10T06:53:16;9.40;;;7.87;;
42802;SDS011;28447;48.682;9.022;2023-06-10T06:55:42;9.07;;;8.07;;
42802;SDS011;28447;48.682;9.022;2023-06-10T06:58:07;10.60;;;7.80;;
42802;SDS011;28447;48.682;9.022;2023-06-10T07:00:33;8.57;;;7.57;;
42802;SDS011;28447;48.682;9.022;2023-06-10T07:02:59;9.70;;;8.70;;
42802;SDS011;28447;48.682;9.022;2023-06-10T07:05:24;10.03;;;7.63;;
42802;SDS011;28447;48.682;9.022;2023-06-10T07:07:52;8.20;;;7.40;;
42802;SDS011;28447;48.682;9.022;2023-06-10T07:10:20;8.80;;;7.90;;
42802;SDS011;28447;48.682;9.022;2023-06-10T07:12:50;9.17;;;8.07;;
42802;SDS011;28447;48.682;9.022;2023-06-10T07:15:16;10.80;;;7.10;;
42802;SDS011;28447;48.682;9.022;2023-06-10T07:17:41;8.73;;;7.00;;
42802;SDS011;28447;48.682;9.022;2023-06-10T07:20:07;7.83;;;7.07;;
42802;SDS011;28447;48.682;9.022;2023-06-10T07:22:33;8.37;;;7.50;;
42802;SDS011;28447;48.682;9.022;2023-06-10T07:24:59;8.10;;;7.37;;
42802;SDS011;28447;48.682;9.022;2023-06-10T07:27:25;8.40;;;7.40;;
42802;SDS011;28447;48.682;9.022;2023-06-10T07:29:50;8.00;;;7.20;;
42802;SDS011;28447;48.682;9.022;2023-06-10T07:32:16;10.87;;;7.70;;
42802;SDS011;28447;48.682;9.022;2023-06-10T07:34:42;8.30;;;7.50;;
42802;SDS011;28447;48.682;9.022;2023-06-10T07:37:08;7.20;;;6.50;;
42802;SDS011;28447;48.682;9.022;2023-06-10T07:39:34;8.73;;;6.97;;
42802;SDS011;28447;48.682;9.022;2023-06-10T07:42:00;9.80;;;7.20;;
42802;SDS011;28447;48.682;9.022;2023-06-10T07:44:26;7.07;;;6.37;;
42802;SDS011;28447;48.682;9.022;2023-06-10T07:46:51;7.18;;;6.47;;
42802;SDS011;28447;48.682;9.022;2023-06-10T07:49:17;7.10;;;6.40;;
42802;SDS011;28447;48.682;9.022;2023-06-10T07:51:44;7.05;;;6.35;;
42802;SDS011;28447;48.682;9.022;2023-06-10T07:54:10;8.32;;;6.40;;
42802;SDS011;28447;48.682;9.022;2023-06-10T07:56:37;6.78;;;6.18;;
42802;SDS011;28447;48.682;9.022;2023-06-10T07:59:03;8.20;;;6.50;;
42802;SDS011;28447;48.682;9.022;2023-06-10T08:01:28;7.95;;;6.95;;
42802;SDS011;28447;48.682;9.022;2023-06-10T08:03:55;7.38;;;6.70;;
42802;SDS011;28447;48.682;9.022;2023-06-10T08:06:20;6.80;;;6.20;;
42802;SDS011;28447;48.682;9.022;2023-06-10T08:08:46;7.07;;;6.47;;
42802;SDS011;28447;48.682;9.022;2023-06-10T08:11:12;7.35;;;6.53;;
42802;SDS011;28447;48.682;9.022;2023-06-10T08:13:38;7.68;;;6.90;;
42802;SDS011;28447;48.682;9.022;2023-06-10T08:16:04;7.43;;;6.72;;
42802;SDS011;28447;48.682;9.022;2023-06-10T08:18:30;7.13;;;6.43;;
42802;SDS011;28447;48.682;9.022;2023-06-10T08:20:56;7.35;;;6.75;;
42802;SDS011;28447;48.682;9.022;2023-06-10T08:23:22;7.32;;;6.63;;
42802;SDS011;28447;48.682;9.022;2023-06-10T08:25:48;7.57;;;6.88;;
42802;SDS011;28447;48.682;9.022;2023-06-10T08:28:13;7.60;;;6.90;;
42802;SDS011;28447;48.682;9.022;2023-06-10T08:30:39;6.85;;;5.90;;
42802;SDS011;28447;48.682;9.022;2023-06-10T08:33:05;9.15;;;7.00;;
42802;SDS011;28447;48.682;9.022;2023-06-10T08:35:31;6.43;;;5.82;;
42802;SDS011;28447;48.682;9.022;2023-06-10T08:37:56;8.20;;;7.47;;
42802;SDS011;28447;48.682;9.022;2023-06-10T08:40:22;7.97;;;6.75;;
42802;SDS011;28447;48.682;9.022;2023-06-10T08:43:01;7.32;;;6.65;;
42802;SDS011;28447;48.682;9.022;2023-06-10T08:45:53;7.43;;;6.68;;
42802;SDS011;28447;48.682;9.022;2023-06-10T08:48:24;8.27;;;6.82;;
42802;SDS011;28447;48.682;9.022;2023-06-10T08:50:55;7.57;;;6.85;;
42802;SDS011;28447;48.682;9.022;2023-06-10T08:53:22;7.07;;;6.38;;
42802;SDS011;28447;48.682;9.022;2023-06-10T08:55:51;6.60;;;5.80;;
42802;SDS011;28447;48.682;9.022;2023-06-10T08:58:18;7.03;;;6.43;;
42802;SDS011;28447;48.682;9.022;2023-06-10T09:00:45;8.45;;;6.88;;
42802;SDS011;28447;48.682;9.022;2023-06-10T09:03:11;6.90;;;6.10;;
42802;SDS011;28447;48.682;9.022;2023-06-10T09:05:37;6.13;;;5.63;;
42802;SDS011;28447;48.682;9.022;2023-06-10T09:08:05;7.40;;;6.80;;
42802;SDS011;28447;48.682;9.022;2023-06-10T09:10:31;7.72;;;5.53;;
42802;SDS011;28447;48.682;9.022;2023-06-10T09:12:57;7.07;;;6.43;;
42802;SDS011;28447;48.682;9.022;2023-06-10T09:15:23;6.82;;;6.13;;
42802;SDS011;28447;48.682;9.022;2023-06-10T09:17:49;8.68;;;6.40;;
42802;SDS011;28447;48.682;9.022;2023-06-10T09:20:16;6.63;;;6.10;;
42802;SDS011;28447;48.682;9.022;2023-06-10T09:22:42;6.78;;;6.18;;
42802;SDS011;28447;48.682;9.022;2023-06-10T09:25:09;6.18;;;5.60;;
42802;SDS011;28447;48.682;9.022;2023-06-10T09:27:51;6.65;;;6.00;;
42802;SDS011;28447;48.682;9.022;2023-06-10T09:30:28;6.82;;;6.20;;
42802;SDS011;28447;48.682;9.022;2023-06-10T09:32:55;10.00;;;6.60;;
42802;SDS011;28447;48.682;9.022;2023-06-10T09:35:26;6.32;;;5.70;;
42802;SDS011;28447;48.682;9.022;2023-06-10T09:37:54;7.28;;;6.72;;
42802;SDS011;28447;48.682;9.022;2023-06-10T09:40:21;6.82;;;6.22;;
42802;SDS011;28447;48.682;9.022;2023-06-10T09:42:49;6.57;;;6.07;;
42802;SDS011;28447;48.682;9.022;2023-06-10T09:45:21;7.38;;;6.68;;
42802;SDS011;28447;48.682;9.022;2023-06-10T09:47:51;6.97;;;6.38;;
42802;SDS011;28447;48.682;9.022;2023-06-10T09:50:18;6.72;;;6.20;;
42802;SDS011;28447;48.682;9.022;2023-06-10T09:52:44;7.15;;;6.55;;
42802;SDS011;28447;48.682;9.022;2023-06-10T09:55:12;7.97;;;7.28;;
42802;SDS011;28447;48.682;9.022;2023-06-10T09:57:38;7.88;;;6.55;;
42802;SDS011;28447;48.682;9.022;2023-06-10T10:00:06;7.90;;;6.85;;
42802;SDS011;28447;48.682;9.022;2023-06-10T10:02:45;7.78;;;7.07;;
42802;SDS011;28447;48.682;9.022;2023-06-10T10:05:16;7.63;;;6.93;;
42802;SDS011;28447;48.682;9.022;2023-06-10T10:07:43;7.03;;;6.32;;
42802;SDS011;28447;48.682;9.022;2023-06-10T10:10:09;6.93;;;6.32;;
42802;SDS011;28447;48.682;9.022;2023-06-10T10:12:37;8.57;;;7.68;;
42802;SDS011;28447;48.682;9.022;2023-06-10T10:15:03;7.75;;;7.15;;
42802;SDS011;28447;48.682;9.022;2023-06-10T10:17:33;6.47;;;5.88;;
42802;SDS011;28447;48.682;9.022;2023-06-10T10:20:03;7.28;;;6.40;;
42802;SDS011;28447;48.682;9.022;2023-06-10T10:22:40;7.40;;;6.80;;
42802;SDS011;28447;48.682;9.022;2023-06-10T10:25:10;6.80;;;6.20;;
42802;SDS011;28447;48.682;9.022;2023-06-10T10:27:44;6.32;;;5.82;;
42802;SDS011;28447;48.682;9.022;2023-06-10T10:30:20;7.13;;;6.57;;
42802;SDS011;28447;48.682;9.022;2023-06-10T10:33:06;6.50;;;5.90;;
42802;SDS011;28447;48.682;9.022;2023-06-10T10:35:34;9.48;;;8.68;;
42802;SDS011;28447;48.682;9.022;2023-06-10T10:38:02;7.82;;;7.03;;
42802;SDS011;28447;48.682;9.022;2023-06-10T10:40:28;7.10;;;6.60;;
42802;SDS011;28447;48.682;9.022;2023-06-10T10:42:55;7.00;;;6.30;;
42802;SDS011;28447;48.682;9.022;2023-06-10T10:45:23;6.35;;;5.85;;
42802;SDS011;28447;48.682;9.022;2023-06-10T10:47:52;8.25;;;7.55;;
42802;SDS011;28447;48.682;9.022;2023-06-10T10:50:20;7.15;;;6.40;;
42802;SDS011;28447;48.682;9.022;2023-06-10T10:52:59;7.47;;;6.78;;
42802;SDS011;28447;48.682;9.022;2023-06-10T10:55:29;6.50;;;5.90;;
42802;SDS011;28447;48.682;9.022;2023-06-10T10:58:03;6.68;;;6.18;;
42802;SDS011;28447;48.682;9.022;2023-06-10T11:03:00;6.80;;;6.30;;
42802;SDS011;28447;48.682;9.022;2023-06-10T11:05:40;6.00;;;5.45;;
42802;SDS011;28447;48.682;9.022;2023-06-10T11:08:09;6.47;;;5.97;;
42802;SDS011;28447;48.682;9.022;2023-06-10T11:10:37;5.95;;;5.45;;
42802;SDS011;28447;48.682;9.022;2023-06-10T11:15:37;6.60;;;6.00;;
42802;SDS011;28447;48.682;9.022;2023-06-10T11:18:22;5.80;;;5.20;;
42802;SDS011;28447;48.682;9.022;2023-06-10T11:20:53;5.80;;;5.20;;
42802;SDS011;28447;48.682;9.022;2023-06-10T11:26:09;6.40;;;5.80;;
42802;SDS011;28447;48.682;9.022;2023-06-10T11:28:38;10.13;;;5.70;;
42802;SDS011;28447;48.682;9.022;2023-06-10T11:31:04;6.95;;;6.45;;
42802;SDS011;28447;48.682;9.022;2023-06-10T11:33:29;7.00;;;6.32;;
42802;SDS011;28447;48.682;9.022;2023-06-10T11:35:56;7.55;;;6.38;;
42802;SDS011;28447;48.682;9.022;2023-06-10T11:38:23;7.97;;;5.70;;
42802;SDS011;28447;48.682;9.022;2023-06-10T11:40:50;7.05;;;6.35;;
42802;SDS011;28447;48.682;9.022;2023-06-10T11:43:16;6.28;;;5.68;;
42802;SDS011;28447;48.682;9.022;2023-06-10T11:45:42;6.50;;;6.00;;
42802;SDS011;28447;48.682;9.022;2023-06-10T11:48:09;6.85;;;6.35;;
42802;SDS011;28447;48.682;9.022;2023-06-10T11:50:35;6.30;;;5.80;;
42802;SDS011;28447;48.682;9.022;2023-06-10T11:53:02;8.52;;;6.63;;
42802;SDS011;28447;48.682;9.022;2023-06-10T11:55:41;7.13;;;6.45;;
42802;SDS011;28447;48.682;9.022;2023-06-10T11:58:12;8.05;;;6.72;;
42802;SDS011;28447;48.682;9.022;2023-06-10T12:00:45;6.43;;;5.93;;
42802;SDS011;28447;48.682;9.022;2023-06-10T12:03:23;6.72;;;6.13;;
42802;SDS011;28447;48.682;9.022;2023-06-10T12:06:00;6.05;;;5.55;;
42802;SDS011;28447;48.682;9.022;2023-06-10T12:08:28;6.00;;;5.43;;
42802;SDS011;28447;48.682;9.022;2023-06-10T12:10:55;6.28;;;5.70;;
42802;SDS011;28447;48.682;9.022;2023-06-10T12:13:22;6.45;;;5.85;;
42802;SDS011;28447;48.682;9.022;2023-06-10T12:15:49;6.60;;;5.93;;
42802;SDS011;28447;48.682;9.022;2023-06-10T12:18:18;6.75;;;6.05;;
42802;SDS011;28447;48.682;9.022;2023-06-10T12:20:45;5.93;;;5.45;;
42802;SDS011;28447;48.682;9.022;2023-06-10T12:23:11;6.40;;;5.90;;
42802;SDS011;28447;48.682;9.022;2023-06-10T12:25:38;8.18;;;6.00;;
42802;SDS011;28447;48.682;9.022;2023-06-10T12:28:04;6.95;;;6.25;;
42802;SDS011;28447;48.682;9.022;2023-06-10T12:30:30;7.20;;;6.53;;
42802;SDS011;28447;48.682;9.022;2023-06-10T12:32:56;7.03;;;6.10;;
42802;SDS011;28447;48.682;9.022;2023-06-10T12:35:23;7.55;;;6.85;;
42802;SDS011;28447;48.682;9.022;2023-06-10T12:37:57;6.95;;;6.40;;
42802;SDS011;28447;48.682;9.022;2023-06-10T12:40:31;7.40;;;6.70;;
42802;SDS011;28447;48.682;9.022;2023-06-10T12:42:59;6.90;;;6.20;;
42802;SDS011;28447;48.682;9.022;2023-06-10T12:45:29;6.70;;;6.20;;
42802;SDS011;28447;48.682;9.022;2023-06-10T12:48:31;7.38;;;6.78;;
42802;SDS011;28447;48.682;9.022;2023-06-10T12:50:57;7.18;;;6.57;;
42802;SDS011;28447;48.682;9.022;2023-06-10T12:53:23;7.13;;;6.53;;
42802;SDS011;28447;48.682;9.022;2023-06-10T12:55:50;7.28;;;6.68;;
42802;SDS011;28447;48.682;9.022;2023-06-10T12:58:16;6.60;;;6.10;;
42802;SDS011;28447;48.682;9.022;2023-06-10T13:00:42;7.10;;;6.43;;
42802;SDS011;28447;48.682;9.022;2023-06-10T13:03:08;6.28;;;5.78;;
42802;SDS011;28447;48.682;9.022;2023-06-10T13:05:35;6.53;;;6.00;;
42802;SDS011;28447;48.682;9.022;2023-06-10T13:08:03;6.47;;;5.88;;
42802;SDS011;28447;48.682;9.022;2023-06-10T13:10:35;6.20;;;5.70;;
42802;SDS011;28447;48.682;9.022;2023-06-10T13:13:01;6.95;;;6.22;;
42802;SDS011;28447;48.682;9.022;2023-06-10T13:15:27;7.05;;;6.38;;
42802;SDS011;28447;48.682;9.022;2023-06-10T13:17:53;6.43;;;5.93;;
42802;SDS011;28447;48.682;9.022;2023-06-10T13:20:19;8.10;;;6.22;;
42802;SDS011;28447;48.682;9.022;2023-06-10T13:22:45;6.53;;;6.03;;
42802;SDS011;28447;48.682;9.022;2023-06-10T13:25:12;7.93;;;5.53;;
42802;SDS011;28447;48.682;9.022;2023-06-10T13:27:38;7.03;;;6.47;;
42802;SDS011;28447;48.682;9.022;2023-06-10T13:30:04;6.93;;;6.32;;
42802;SDS011;28447;48.682;9.022;2023-06-10T13:32:31;7.35;;;6.75;;
42802;SDS011;28447;48.682;9.022;2023-06-10T13:34:56;8.43;;;7.63;;
42802;SDS011;28447;48.682;9.022;2023-06-10T13:37:22;6.22;;;5.72;;
42802;SDS011;28447;48.682;9.022;2023-06-10T13:39:48;6.68;;;5.80;;
42802;SDS011;28447;48.682;9.022;2023-06-10T13:42:19;6.38;;;5.88;;
42802;SDS011;28447;48.682;9.022;2023-06-10T13:44:45;6.70;;;6.20;;
42802;SDS011;28447;48.682;9.022;2023-06-10T13:47:12;6.40;;;5.90;;
42802;SDS011;28447;48.682;9.022;2023-06-10T13:49:38;6.45;;;5.93;;
42802;SDS011;28447;48.682;9.022;2023-06-10T13:52:05;6.10;;;5.60;;
42802;SDS011;28447;48.682;9.022;2023-06-10T13:54:31;6.60;;;6.10;;
42802;SDS011;28447;48.682;9.022;2023-06-10T13:56:57;6.38;;;5.88;;
42802;SDS011;28447;48.682;9.022;2023-06-10T13:59:22;7.78;;;6.55;;
42802;SDS011;28447;48.682;9.022;2023-06-10T14:01:48;6.13;;;5.72;;
42802;SDS011;28447;48.682;9.022;2023-06-10T14:04:14;6.30;;;5.70;;
42802;SDS011;28447;48.682;9.022;2023-06-10T14:06:39;6.00;;;5.60;;
42802;SDS011;28447;48.682;9.022;2023-06-10T14:09:05;6.20;;;5.60;;
42802;SDS011;28447;48.682;9.022;2023-06-10T14:11:31;7.15;;;6.55;;
42802;SDS011;28447;48.682;9.022;2023-06-10T14:13:56;6.60;;;6.07;;
42802;SDS011;28447;48.682;9.022;2023-06-10T14:16:22;6.57;;;6.07;;
42802;SDS011;28447;48.682;9.022;2023-06-10T14:18:48;6.45;;;5.90;;
42802;SDS011;28447;48.682;9.022;2023-06-10T14:21:15;6.85;;;6.25;;
42802;SDS011;28447;48.682;9.022;2023-06-10T14:23:41;7.10;;;6.40;;
42802;SDS011;28447;48.682;9.022;2023-06-10T14:26:08;7.55;;;6.38;;
42802;SDS011;28447;48.682;9.022;2023-06-10T14:28:34;5.97;;;5.47;;
42802;SDS011;28447;48.682;9.022;2023-06-10T14:31:00;6.30;;;5.80;;
42802;SDS011;28447;48.682;9.022;2023-06-10T14:33:26;6.10;;;5.60;;
42802;SDS011;28447;48.682;9.022;2023-06-10T14:35:52;6.22;;;5.72;;
42802;SDS011;28447;48.682;9.022;2023-06-10T14:38:17;6.20;;;5.70;;
42802;SDS011;28447;48.682;9.022;2023-06-10T14:40:43;6.10;;;5.60;;
42802;SDS011;28447;48.682;9.022;2023-06-10T14:43:09;6.22;;;5.70;;
42802;SDS011;28447;48.682;9.022;2023-06-10T14:45:35;6.13;;;5.70;;
42802;SDS011;28447;48.682;9.022;2023-06-10T14:48:02;6.57;;;5.97;;
42802;SDS011;28447;48.682;9.022;2023-06-10T14:50:29;5.63;;;5.22;;
42802;SDS011;28447;48.682;9.022;2023-06-10T14:52:54;6.38;;;5.88;;
42802;SDS011;28447;48.682;9.022;2023-06-10T14:55:20;5.90;;;5.50;;
42802;SDS011;28447;48.682;9.022;2023-06-10T14:57:47;6.25;;;5.70;;
42802;SDS011;28447;48.682;9.022;2023-06-10T15:00:13;6.45;;;5.95;;
42802;SDS011;28447;48.682;9.022;2023-06-10T15:02:41;5.68;;;5.28;;
42802;SDS011;28447;48.682;9.022;2023-06-10T15:05:07;5.63;;;5.22;;
42802;SDS011;28447;48.682;9.022;2023-06-10T15:07:33;6.90;;;6.38;;
42802;SDS011;28447;48.682;9.022;2023-06-10T15:09:59;5.85;;;5.40;;
42802;SDS011;28447;48.682;9.022;2023-06-10T15:12:25;5.80;;;5.38;;
42802;SDS011;28447;48.682;9.022;2023-06-10T15:14:50;6.57;;;5.88;;
42802;SDS011;28447;48.682;9.022;2023-06-10T15:17:16;5.90;;;5.20;;
42802;SDS011;28447;48.682;9.022;2023-06-10T15:19:42;6.18;;;5.68;;
42802;SDS011;28447;48.682;9.022;2023-06-10T15:22:07;7.10;;;6.53;;
42802;SDS011;28447;48.682;9.022;2023-06-10T15:24:33;6.45;;;5.75;;
42802;SDS011;28447;48.682;9.022;2023-06-10T15:26:59;6.68;;;6.18;;
42802;SDS011;28447;48.682;9.022;2023-06-10T15:29:25;6.65;;;6.07;;
42802;SDS011;28447;48.682;9.022;2023-06-10T15:31:50;6.85;;;6.25;;
42802;SDS011;28447;48.682;9.022;2023-06-10T15:34:16;11.07;;;6.65;;
42802;SDS011;28447;48.682;9.022;2023-06-10T15:36:41;8.35;;;6.35;;
42802;SDS011;28447;48.682;9.022;2023-06-10T15:39:07;7.60;;;6.90;;
42802;SDS011;28447;48.682;9.022;2023-06-10T15:41:33;6.97;;;6.38;;
42802;SDS011;28447;48.682;9.022;2023-06-10T15:43:59;6.90;;;6.22;;
42802;SDS011;28447;48.682;9.022;2023-06-10T15:46:26;7.47;;;6.85;;
42802;SDS011;28447;48.682;9.022;2023-06-10T15:48:53;6.72;;;6.15;;
42802;SDS011;28447;48.682;9.022;2023-06-10T15:51:19;7.63;;;6.60;;
42802;SDS011;28447;48.682;9.022;2023-06-10T15:53:44;7.25;;;6.65;;
42802;SDS011;28447;48.682;9.022;2023-06-10T15:56:11;7.38;;;6.68;;
42802;SDS011;28447;48.682;9.022;2023-06-10T15:58:37;7.28;;;6.68;;
42802;SDS011;28447;48.682;9.022;2023-06-10T16:01:02;7.30;;;6.65;;
42802;SDS011;28447;48.682;9.022;2023-06-10T16:03:28;7.35;;;6.40;;
42802;SDS011;28447;48.682;9.022;2023-06-10T16:05:54;7.72;;;7.13;;
42802;SDS011;28447;48.682;9.022;2023-06-10T16:08:19;7.32;;;6.72;;
42802;SDS011;28447;48.682;9.022;2023-06-10T16:10:45;7.28;;;6.63;;
42802;SDS011;28447;48.682;9.022;2023-06-10T16:13:11;6.43;;;5.93;;
42802;SDS011;28447;48.682;9.022;2023-06-10T16:15:37;7.15;;;6.55;;
42802;SDS011;28447;48.682;9.022;2023-06-10T16:18:02;6.80;;;6.22;;
42802;SDS011;28447;48.682;9.022;2023-06-10T16:20:28;7.72;;;7.03;;
42802;SDS011;28447;48.682;9.022;2023-06-10T16:22:55;8.05;;;7.03;;
42802;SDS011;28447;48.682;9.022;2023-06-10T16:25:20;7.43;;;6.72;;
42802;SDS011;28447;48.682;9.022;2023-06-10T16:27:46;6.97;;;6.38;;
42802;SDS011;28447;48.682;9.022;2023-06-10T16:30:11;6.85;;;6.25;;
42802;SDS011;28447;48.682;9.022;2023-06-10T16:32:39;7.20;;;6.50;;
42802;SDS011;28447;48.682;9.022;2023-06-10T16:35:05;7.40;;;6.75;;
42802;SDS011;28447;48.682;9.022;2023-06-10T16:37:31;7.55;;;6.85;;
42802;SDS011;28447;48.682;9.022;2023-06-10T16:39:57;7.28;;;6.68;;
42802;SDS011;28447;48.682;9.022;2023-06-10T16:42:23;7.38;;;6.78;;
42802;SDS011;28447;48.682;9.022;2023-06-10T16:44:48;7.60;;;6.90;;
42802;SDS011;28447;48.682;9.022;2023-06-10T16:47:14;7.03;;;6.38;;
42802;SDS011;28447;48.682;9.022;2023-06-10T16:49:40;8.60;;;5.93;;
42802;SDS011;28447;48.682;9.022;2023-06-10T16:52:05;6.78;;;6.22;;
42802;SDS011;28447;48.682;9.022;2023-06-10T16:54:31;6.40;;;5.90;;
42802;SDS011;28447;48.682;9.022;2023-06-10T16:56:57;6.88;;;5.70;;
42802;SDS011;28447;48.682;9.022;2023-06-10T16:59:22;6.07;;;5.57;;
42802;SDS011;28447;48.682;9.022;2023-06-10T17:01:48;5.93;;;5.43;;
42802;SDS011;28447;48.682;9.022;2023-06-10T17:04:13;6.28;;;5.75;;
42802;SDS011;28447;48.682;9.022;2023-06-10T17:06:39;6.20;;;5.70;;
42802;SDS011;28447;48.682;9.022;2023-06-10T17:09:05;8.00;;;6.03;;
42802;SDS011;28447;48.682;9.022;2023-06-10T17:11:30;6.50;;;5.85;;
42802;SDS011;28447;48.682;9.022;2023-06-10T17:13:58;7.22;;;6.63;;
42802;SDS011;28447;48.682;9.022;2023-06-10T17:16:23;7.22;;;6.53;;
42802;SDS011;28447;48.682;9.022;2023-06-10T17:18:49;8.13;;;7.38;;
42802;SDS011;28447;48.682;9.022;2023-06-10T17:21:15;7.63;;;6.93;;
42802;SDS011;28447;48.682;9.022;2023-06-10T17:23:40;7.53;;;6.78;;
42802;SDS011;28447;48.682;9.022;2023-06-10T17:26:06;6.82;;;6.22;;
42802;SDS011;28447;48.682;9.022;2023-06-10T17:28:32;6.40;;;5.80;;
42802;SDS011;28447;48.682;9.022;2023-06-10T17:30:57;6.22;;;5.72;;
42802;SDS011;28447;48.682;9.022;2023-06-10T17:33:23;8.38;;;6.30;;
42802;SDS011;28447;48.682;9.022;2023-06-10T17:35:48;6.88;;;6.18;;
42802;SDS011;28447;48.682;9.022;2023-06-10T17:38:15;6.70;;;6.10;;
42802;SDS011;28447;48.682;9.022;2023-06-10T17:40:42;6.82;;;6.30;;
42802;SDS011;28447;48.682;9.022;2023-06-10T17:43:08;6.10;;;5.55;;
42802;SDS011;28447;48.682;9.022;2023-06-10T17:45:33;6.43;;;5.90;;
42802;SDS011;28447;48.682;9.022;2023-06-10T17:47:59;6.30;;;5.70;;
42802;SDS011;28447;48.682;9.022;2023-06-10T17:50:24;5.78;;;5.28;;
42802;SDS011;28447;48.682;9.022;2023-06-10T17:52:50;8.95;;;6.40;;
42802;SDS011;28447;48.682;9.022;2023-06-10T17:55:16;6.55;;;5.93;;
42802;SDS011;28447;48.682;9.022;2023-06-10T17:57:41;8.95;;;6.13;;
42802;SDS011;28447;48.682;9.022;2023-06-10T18:00:07;7.03;;;6.32;;
42802;SDS011;28447;48.682;9.022;2023-06-10T18:02:33;6.25;;;5.65;;
42802;SDS011;28447;48.682;9.022;2023-06-10T18:04:59;7.95;;;6.13;;
42802;SDS011;28447;48.682;9.022;2023-06-10T18:07:25;6.68;;;6.07;;
42802;SDS011;28447;48.682;9.022;2023-06-10T18:09:50;6.20;;;5.60;;
42802;SDS011;28447;48.682;9.022;2023-06-10T18:12:16;7.10;;;6.40;;
42802;SDS011;28447;48.682;9.022;2023-06-10T18:14:42;8.63;;;6.18;;
42802;SDS011;28447;48.682;9.022;2023-06-10T18:17:07;7.97;;;6.13;;
42802;SDS011;28447;48.682;9.022;2023-06-10T18:19:33;7.00;;;6.38;;
42802;SDS011;28447;48.682;9.022;2023-06-10T18:21:59;13.02;;;5.90;;
42802;SDS011;28447;48.682;9.022;2023-06-10T18:24:24;6.55;;;5.85;;
42802;SDS011;28447;48.682;9.022;2023-06-10T18:26:50;6.78;;;6.18;;
42802;SDS011;28447;48.682;9.022;2023-06-10T18:29:16;6.55;;;5.72;;
42802;SDS011;28447;48.682;9.022;2023-06-10T18:31:41;6.68;;;5.97;;
42802;SDS011;28447;48.682;9.022;2023-06-10T18:34:07;6.70;;;6.00;;
42802;SDS011;28447;48.682;9.022;2023-06-10T18:36:33;6.57;;;5.85;;
42802;SDS011;28447;48.682;9.022;2023-06-10T18:38:58;6.10;;;5.60;;
42802;SDS011;28447;48.682;9.022;2023-06-10T18:41:24;8.98;;;6.65;;
42802;SDS011;28447;48.682;9.022;2023-06-10T18:43:51;7.18;;;6.47;;
42802;SDS011;28447;48.682;9.022;2023-06-10T18:46:17;6.70;;;6.10;;
42802;SDS011;28447;48.682;9.022;2023-06-10T18:48:42;8.00;;;6.13;;
42802;SDS011;28447;48.682;9.022;2023-06-10T18:51:10;6.20;;;5.60;;